Time;durP1;ratioP1;P1;durP2;ratioP2;P2;SDS_P1;SDS_P2;PMS_P1;PMS_P2;Temp;Humidity;BMP_temperature;BMP_pressure;BME280_temperature;BME280_humidity;BME280_pressure;Samples;Min_cycle;Max_cycle;Signal;HPM_P1;HPM_P2
2022/11/01 00:01:40;;;;;;;28.02;11.15;;;14.10;99.90;;;;;;4970711;28;20046;-75
2022/11/01 00:04:05;;;;;;;27.77;11.05;;;14.10;99.90;;;;;;4967471;28;20129;-76
2022/11/01 00:06:31;;;;;;;23.65;11.45;;;14.10;99.90;;;;;;4958409;28;20113;-76
2022/11/01 00:08:57;;;;;;;21.70;11.45;;;14.10;99.90;;;;;;4968106;28;20133;-75
2022/11/01 00:11:22;;;;;;;21.77;9.73;;;14.00;99.90;;;;;;4969470;28;20082;-75
2022/11/01 00:13:49;;;;;;;22.23;10.27;;;14.00;99.90;;;;;;4970018;28;20039;-76
2022/11/01 00:16:16;;;;;;;24.05;11.10;;;14.10;99.90;;;;;;4970597;28;20422;-77
2022/11/01 00:18:42;;;;;;;28.92;11.82;;;14.00;99.90;;;;;;4969440;28;20458;-74
2022/11/01 00:21:08;;;;;;;16.65;11.27;;;14.00;99.90;;;;;;4970463;28;20122;-75
2022/11/01 00:23:34;;;;;;;14.18;11.07;;;14.00;99.90;;;;;;4969113;28;20133;-74
2022/11/01 00:26:00;;;;;;;15.05;9.27;;;14.00;99.90;;;;;;4967572;28;20074;-76
2022/11/01 00:28:27;;;;;;;21.13;10.23;;;14.00;99.90;;;;;;4966904;28;20118;-76
2022/11/01 00:30:54;;;;;;;19.52;9.27;;;14.10;99.90;;;;;;4967956;28;20038;-75
2022/11/01 00:33:20;;;;;;;17.83;9.52;;;14.10;99.90;;;;;;4970844;28;20047;-76
2022/11/01 00:35:47;;;;;;;22.13;10.15;;;14.10;99.90;;;;;;4970894;28;20039;-75
2022/11/01 00:38:14;;;;;;;20.67;9.00;;;14.00;99.90;;;;;;4969039;28;20051;-75
2022/11/01 00:40:41;;;;;;;21.42;8.45;;;14.10;99.90;;;;;;4964354;28;20031;-73
2022/11/01 00:43:06;;;;;;;20.73;9.32;;;14.10;99.90;;;;;;4968616;28;20074;-73
2022/11/01 00:45:32;;;;;;;20.00;9.57;;;14.20;99.90;;;;;;4967877;28;20047;-77
2022/11/01 00:47:58;;;;;;;14.73;8.20;;;14.20;99.90;;;;;;4968916;28;20098;-76
2022/11/01 00:50:24;;;;;;;16.08;9.40;;;14.20;99.90;;;;;;4969158;28;20402;-77
2022/11/01 00:52:49;;;;;;;19.33;8.95;;;14.20;99.90;;;;;;4967858;28;20042;-73
2022/11/01 00:55:16;;;;;;;18.42;8.15;;;14.20;99.90;;;;;;4966689;28;20075;-75
2022/11/01 00:57:44;;;;;;;17.65;9.05;;;14.20;99.90;;;;;;4969418;28;20118;-73
2022/11/01 01:00:11;;;;;;;15.35;8.05;;;14.30;99.90;;;;;;4966895;28;20050;-76
2022/11/01 01:02:37;;;;;;;21.23;8.60;;;14.30;99.90;;;;;;4967748;28;20039;-74
2022/11/01 01:05:03;;;;;;;13.07;6.40;;;14.40;99.90;;;;;;4964691;28;20057;-76
2022/11/01 01:07:29;;;;;;;16.23;8.75;;;14.40;99.90;;;;;;4962601;28;20043;-74
2022/11/01 01:09:55;;;;;;;12.18;7.25;;;14.30;99.90;;;;;;4962681;28;20494;-76
2022/11/01 01:12:20;;;;;;;12.18;6.65;;;14.30;99.90;;;;;;4969845;28;20459;-76
2022/11/01 01:14:46;;;;;;;15.05;8.70;;;14.30;99.90;;;;;;4968942;28;20058;-75
2022/11/01 01:17:12;;;;;;;20.23;8.82;;;14.40;99.90;;;;;;4969938;28;20046;-75
2022/11/01 01:19:37;;;;;;;19.95;8.02;;;14.40;99.90;;;;;;4961095;28;20083;-76
2022/11/01 01:22:03;;;;;;;14.60;7.22;;;14.40;99.90;;;;;;4952967;28;20078;-77
2022/11/01 01:24:30;;;;;;;12.20;7.95;;;14.30;99.90;;;;;;4966166;28;20129;-73
2022/11/01 01:26:55;;;;;;;15.00;8.02;;;14.40;99.90;;;;;;4969005;28;20274;-76
2022/11/01 01:29:21;;;;;;;36.90;7.43;;;14.40;99.90;;;;;;4966266;28;20462;-76
2022/11/01 01:31:49;;;;;;;16.25;7.20;;;14.40;99.90;;;;;;4969170;28;20042;-76
2022/11/01 01:34:15;;;;;;;17.13;7.88;;;14.30;99.90;;;;;;4968956;28;20134;-76
2022/11/01 01:36:41;;;;;;;17.05;7.07;;;14.40;99.90;;;;;;4971831;28;20035;-76
2022/11/01 01:39:06;;;;;;;13.80;6.30;;;14.40;99.90;;;;;;4971652;28;20441;-76
2022/11/01 01:44:49;;;;;;;13.95;8.35;;;14.40;99.90;;;;;;4971657;28;20078;-76
2022/11/01 01:47:23;;;;;;;16.35;6.85;;;14.30;99.90;;;;;;4971344;28;20102;-74
2022/11/01 01:49:54;;;;;;;14.77;6.40;;;14.40;99.90;;;;;;4970366;28;20043;-76
2022/11/01 01:52:20;;;;;;;17.63;6.60;;;14.40;99.90;;;;;;4972984;28;20133;-75
2022/11/01 01:54:47;;;;;;;15.35;8.02;;;14.30;99.90;;;;;;4970259;28;20125;-72
2022/11/01 01:57:13;;;;;;;18.45;7.32;;;14.30;99.90;;;;;;4954265;28;20055;-77
2022/11/01 01:59:39;;;;;;;20.25;8.05;;;14.30;99.90;;;;;;4963282;28;20051;-76
2022/11/01 02:02:05;;;;;;;13.73;6.20;;;14.30;99.90;;;;;;4958809;28;20058;-76
2022/11/01 02:04:36;;;;;;;12.95;6.05;;;14.30;99.90;;;;;;4970958;28;20049;-76
2022/11/01 02:07:02;;;;;;;14.38;7.80;;;14.30;99.90;;;;;;4964584;28;20383;-76
2022/11/01 02:09:29;;;;;;;20.70;8.20;;;14.40;99.90;;;;;;4957850;28;20074;-79
2022/11/01 02:11:56;;;;;;;9.90;5.90;;;14.30;99.90;;;;;;4971747;28;20046;-75
2022/11/01 02:14:23;;;;;;;12.35;6.68;;;14.30;99.90;;;;;;5046438;23;20137;-84
2022/11/01 02:17:05;;;;;;;13.45;7.45;;;14.30;99.90;;;;;;4979879;28;20051;-80
2022/11/01 02:19:31;;;;;;;15.32;7.32;;;14.30;99.90;;;;;;4980879;28;20441;-83
2022/11/01 02:22:02;;;;;;;12.90;6.85;;;14.30;99.90;;;;;;4986811;28;20053;-85
2022/11/01 02:24:43;;;;;;;15.30;6.43;;;14.30;99.90;;;;;;4989004;28;20159;-86
2022/11/01 02:27:12;;;;;;;16.98;7.10;;;14.30;99.90;;;;;;4958161;28;20046;-78
2022/11/01 02:30:00;;;;;;;13.75;6.35;;;14.40;99.90;;;;;;4976017;28;20046;-83
2022/11/01 02:32:31;;;;;;;16.95;6.22;;;14.40;99.90;;;;;;4990902;28;20671;-79
2022/11/01 02:35:11;;;;;;;13.60;7.18;;;14.40;99.90;;;;;;4984145;28;20161;-86
2022/11/01 02:38:01;;;;;;;11.68;5.82;;;14.40;99.90;;;;;;4978155;28;20042;-87
2022/11/01 02:40:54;;;;;;;14.23;6.93;;;14.40;99.90;;;;;;4977177;28;20086;-87
2022/11/01 02:43:46;;;;;;;12.88;6.47;;;14.40;99.90;;;;;;4971798;28;20058;-83
2022/11/01 02:48:57;;;;;;;12.40;6.55;;;14.50;99.90;;;;;;4983024;28;20062;-88
2022/11/01 02:51:24;;;;;;;16.63;6.75;;;14.40;99.90;;;;;;4979761;28;20042;-82
2022/11/01 02:53:50;;;;;;;11.50;4.68;;;14.50;99.90;;;;;;4971141;28;20097;-84
2022/11/01 02:56:17;;;;;;;11.13;5.55;;;14.50;99.90;;;;;;4989544;28;20457;-86
2022/11/01 02:58:45;;;;;;;9.93;6.20;;;14.50;99.90;;;;;;4971921;28;20485;-86
2022/11/01 03:01:17;;;;;;;17.92;6.57;;;14.40;99.90;;;;;;4977607;28;20042;-88
2022/11/01 03:03:46;;;;;;;17.90;6.07;;;14.50;99.90;;;;;;4988386;28;20046;-85
2022/11/01 03:06:22;;;;;;;15.20;6.10;;;14.50;99.90;;;;;;4986922;28;20691;-82
2022/11/01 03:08:53;;;;;;;9.73;4.78;;;14.50;99.90;;;;;;4974595;28;20480;-80
2022/11/01 03:11:21;;;;;;;19.10;5.60;;;14.50;99.90;;;;;;4985826;28;20039;-86
2022/11/01 03:14:14;;;;;;;16.27;6.13;;;14.50;99.90;;;;;;4970389;28;20050;-77
2022/11/01 03:17:01;;;;;;;14.95;7.03;;;14.50;99.90;;;;;;4975585;28;20042;-85
2022/11/01 03:19:50;;;;;;;14.85;6.82;;;14.50;99.90;;;;;;4985758;28;20452;-85
2022/11/01 03:22:34;;;;;;;15.88;6.68;;;14.50;99.90;;;;;;4982860;28;20042;-88
2022/11/01 03:25:38;;;;;;;10.38;6.13;;;14.50;99.90;;;;;;4971730;28;20109;-79
2022/11/01 03:28:21;;;;;;;16.33;5.70;;;14.60;99.90;;;;;;4984846;28;20054;-82
2022/11/01 03:30:54;;;;;;;13.52;5.88;;;14.50;99.90;;;;;;4986347;28;20043;-86
2022/11/01 03:33:21;;;;;;;13.57;5.72;;;14.60;99.90;;;;;;4978644;28;20118;-86
2022/11/01 03:35:50;;;;;;;14.98;6.78;;;14.50;99.90;;;;;;4980214;28;20039;-85
2022/11/01 03:38:23;;;;;;;11.45;7.07;;;14.50;99.90;;;;;;4988695;28;20035;-87
2022/11/01 03:40:54;;;;;;;15.05;5.60;;;14.50;99.90;;;;;;4971737;28;20031;-81
2022/11/01 03:43:24;;;;;;;15.63;6.20;;;14.40;99.90;;;;;;4969132;28;20045;-87
2022/11/01 03:45:49;;;;;;;12.25;6.95;;;14.50;99.90;;;;;;4979635;28;20073;-77
2022/11/01 03:48:15;;;;;;;10.35;4.82;;;14.60;99.90;;;;;;4978668;28;20100;-87
2022/11/01 03:50:47;;;;;;;14.15;5.97;;;14.60;99.90;;;;;;4988581;28;20043;-86
2022/11/01 03:53:13;;;;;;;14.10;5.78;;;14.70;99.90;;;;;;4987936;28;20088;-81
2022/11/01 03:55:38;;;;;;;15.55;5.90;;;14.80;99.90;;;;;;4987390;28;20046;-84
2022/11/01 03:58:04;;;;;;;12.18;5.78;;;14.80;99.90;;;;;;4989293;28;20544;-88
2022/11/01 04:00:32;;;;;;;14.82;5.68;;;14.80;99.90;;;;;;4983819;28;20126;-80
2022/11/01 04:02:59;;;;;;;12.40;4.88;;;14.80;99.90;;;;;;4989666;28;20105;-81
2022/11/01 04:05:27;;;;;;;10.38;5.32;;;14.90;99.90;;;;;;4987019;28;20424;-83
2022/11/01 04:07:53;;;;;;;12.93;6.07;;;14.90;99.90;;;;;;4975737;28;20138;-87
2022/11/01 04:10:20;;;;;;;19.00;7.68;;;14.90;99.90;;;;;;4971266;28;20054;-76
2022/11/01 04:12:48;;;;;;;14.50;6.00;;;15.00;99.90;;;;;;4986970;28;20181;-84
2022/11/01 04:21:09;;;;;;;14.85;6.53;;;15.10;99.90;;;;;;5001527;28;20061;-76
2022/11/01 04:23:35;;;;;;;15.70;5.10;;;15.20;99.90;;;;;;4982626;28;20363;-75
2022/11/01 04:26:01;;;;;;;8.70;5.63;;;15.10;99.90;;;;;;4964400;28;20125;-85
2022/11/01 04:28:27;;;;;;;13.85;5.82;;;15.10;99.90;;;;;;4990484;28;20074;-88
2022/11/01 04:30:53;;;;;;;10.65;4.97;;;15.10;99.90;;;;;;4986421;28;20861;-86
2022/11/01 04:33:18;;;;;;;16.17;6.60;;;15.10;99.90;;;;;;4971213;28;20045;-88
2022/11/01 04:35:44;;;;;;;13.13;6.63;;;15.20;99.90;;;;;;4970793;28;20150;-88
2022/11/01 04:38:10;;;;;;;11.90;5.30;;;15.20;99.90;;;;;;4973419;28;20038;-88
2022/11/01 04:40:37;;;;;;;12.88;5.32;;;15.20;99.90;;;;;;4981295;28;20541;-79
2022/11/01 04:43:03;;;;;;;11.65;4.50;;;15.20;99.90;;;;;;4970288;28;20069;-89
2022/11/01 04:45:29;;;;;;;10.52;6.15;;;15.20;99.90;;;;;;4989511;28;20042;-89
2022/11/01 04:48:12;;;;;;;14.35;5.22;;;15.10;99.90;;;;;;4980432;28;20093;-85
2022/11/01 04:50:39;;;;;;;15.52;7.05;;;15.10;99.90;;;;;;4976344;28;20065;-85
2022/11/01 04:53:05;;;;;;;8.68;4.30;;;15.10;99.90;;;;;;4992326;28;20042;-77
2022/11/01 04:55:30;;;;;;;10.70;5.38;;;15.10;99.90;;;;;;4986036;28;20051;-82
2022/11/01 04:57:56;;;;;;;8.93;5.93;;;15.20;99.90;;;;;;4992349;28;20058;-84
2022/11/01 05:00:22;;;;;;;6.25;4.30;;;15.20;99.90;;;;;;5001770;28;20045;-75
2022/11/01 05:02:48;;;;;;;8.95;4.32;;;15.30;99.90;;;;;;5002237;28;20043;-82
2022/11/01 05:05:14;;;;;;;9.88;4.78;;;15.20;99.90;;;;;;5002904;28;20046;-84
2022/11/01 05:07:40;;;;;;;9.80;5.22;;;15.20;99.90;;;;;;4994230;28;20038;-81
2022/11/01 05:10:07;;;;;;;9.18;4.95;;;15.30;99.90;;;;;;4986500;28;20061;-83
2022/11/01 05:12:33;;;;;;;10.65;3.55;;;15.30;99.90;;;;;;4993038;28;20042;-81
2022/11/01 05:14:59;;;;;;;11.20;4.28;;;15.40;99.90;;;;;;4994787;28;20141;-83
2022/11/01 05:17:24;;;;;;;6.95;2.75;;;15.30;99.90;;;;;;4994628;28;20034;-84
2022/11/01 05:19:50;;;;;;;9.60;2.80;;;15.30;99.90;;;;;;4992733;28;20572;-86
2022/11/01 05:22:16;;;;;;;7.35;2.22;;;15.30;99.90;;;;;;4979121;28;20168;-86
2022/11/01 05:24:42;;;;;;;5.07;2.20;;;15.30;99.90;;;;;;4992145;28;20054;-89
2022/11/01 05:27:08;;;;;;;18.13;8.23;;;15.20;99.90;;;;;;4985072;28;20042;-81
2022/11/01 05:29:34;;;;;;;11.75;2.78;;;15.10;99.90;;;;;;4961161;28;20470;-84
2022/11/01 05:32:00;;;;;;;3.83;1.75;;;15.20;99.90;;;;;;4985632;28;20057;-80
2022/11/01 05:34:25;;;;;;;5.38;2.40;;;15.10;99.90;;;;;;4980316;28;20051;-82
2022/11/01 05:36:52;;;;;;;5.35;1.98;;;15.20;99.90;;;;;;4979423;28;20078;-85
2022/11/01 05:39:17;;;;;;;8.80;2.33;;;15.10;99.90;;;;;;4988518;28;20050;-81
2022/11/01 05:41:43;;;;;;;4.95;1.85;;;15.10;99.90;;;;;;4992754;28;20039;-85
2022/11/01 05:44:09;;;;;;;4.43;1.88;;;15.00;99.90;;;;;;4993845;28;20127;-83
2022/11/01 05:46:34;;;;;;;7.32;3.42;;;15.00;99.90;;;;;;4990291;28;20085;-83
2022/11/01 05:49:00;;;;;;;7.57;2.95;;;15.00;99.90;;;;;;4990473;28;20762;-83
2022/11/01 05:51:25;;;;;;;6.35;2.75;;;15.00;99.90;;;;;;4992668;28;20074;-83
2022/11/01 05:53:51;;;;;;;8.18;1.73;;;14.90;99.90;;;;;;4990615;28;20060;-82
2022/11/01 05:56:17;;;;;;;5.80;1.90;;;14.80;99.90;;;;;;4990634;28;20046;-89
2022/11/01 05:58:43;;;;;;;6.35;2.35;;;14.70;99.90;;;;;;4984172;28;20069;-78
2022/11/01 06:01:09;;;;;;;16.95;2.60;;;14.70;99.90;;;;;;4976205;28;20445;-84
2022/11/01 06:03:35;;;;;;;4.53;1.23;;;14.40;99.90;;;;;;4982720;28;20573;-88
2022/11/01 06:06:01;;;;;;;7.80;1.95;;;14.40;99.90;;;;;;4974038;28;20461;-88
2022/11/01 06:08:27;;;;;;;5.75;1.02;;;14.30;99.90;;;;;;4984828;28;20054;-86
2022/11/01 06:11:01;;;;;;;5.68;1.60;;;14.40;99.90;;;;;;4974138;28;20046;-89
2022/11/01 06:13:27;;;;;;;6.03;2.25;;;14.40;99.90;;;;;;4983329;28;20050;-87
2022/11/01 06:16:01;;;;;;;4.53;1.50;;;14.30;99.90;;;;;;4991979;28;20055;-87
2022/11/01 06:18:26;;;;;;;4.53;1.33;;;14.20;99.90;;;;;;4992029;28;20130;-82
2022/11/01 06:20:52;;;;;;;6.80;0.75;;;14.20;99.90;;;;;;4991239;28;20477;-87
2022/11/01 06:23:18;;;;;;;3.47;0.82;;;14.20;99.90;;;;;;4990470;28;20046;-80
2022/11/01 06:25:43;;;;;;;3.92;0.60;;;14.10;99.90;;;;;;4985353;28;20031;-78
2022/11/01 06:28:09;;;;;;;6.45;0.93;;;14.00;99.90;;;;;;4978355;28;20046;-85
2022/11/01 06:30:37;;;;;;;4.75;1.33;;;14.00;99.90;;;;;;4980039;28;20046;-80
2022/11/01 06:33:05;;;;;;;10.23;1.98;;;13.90;99.90;;;;;;4978574;28;20351;-85
2022/11/01 06:35:34;;;;;;;3.53;0.73;;;13.80;99.90;;;;;;4986396;28;20528;-86
2022/11/01 06:38:05;;;;;;;10.55;2.08;;;13.70;99.90;;;;;;4989674;28;20044;-86
2022/11/01 06:40:31;;;;;;;2.42;0.40;;;13.70;99.90;;;;;;4988671;28;20046;-82
2022/11/01 06:43:01;;;;;;;5.97;1.27;;;13.60;99.90;;;;;;4976605;28;20150;-76
2022/11/01 06:45:28;;;;;;;3.85;0.73;;;13.70;99.90;;;;;;4985844;28;20065;-84
2022/11/01 06:47:54;;;;;;;2.63;0.68;;;13.60;99.90;;;;;;4989802;28;20046;-90
2022/11/01 06:50:20;;;;;;;7.93;1.67;;;13.50;99.90;;;;;;4973007;28;20058;-85
2022/11/01 06:52:46;;;;;;;11.32;1.48;;;13.40;99.90;;;;;;4990484;28;20104;-85
2022/11/01 06:55:11;;;;;;;5.28;2.00;;;13.50;99.90;;;;;;4985265;28;20589;-87
2022/11/01 06:57:37;;;;;;;11.27;1.90;;;13.50;99.90;;;;;;4994549;28;20080;-74
2022/11/01 07:00:04;;;;;;;12.07;1.50;;;13.40;99.90;;;;;;4995576;28;20088;-86
2022/11/01 07:02:30;;;;;;;8.82;1.45;;;13.50;99.90;;;;;;4987483;28;20042;-86
2022/11/01 07:04:55;;;;;;;3.17;0.80;;;13.50;99.90;;;;;;4976542;28;20057;-87
2022/11/01 07:07:21;;;;;;;11.73;1.15;;;13.50;99.90;;;;;;4989568;28;20046;-87
2022/11/01 07:09:46;;;;;;;9.02;2.28;;;13.60;99.90;;;;;;4994145;28;20050;-84
2022/11/01 07:12:12;;;;;;;8.30;1.65;;;13.60;99.90;;;;;;4986157;28;20500;-82
2022/11/01 07:14:38;;;;;;;11.57;1.20;;;13.60;99.90;;;;;;4989240;28;20117;-82
2022/11/01 07:17:03;;;;;;;9.20;1.90;;;13.70;99.90;;;;;;4992722;28;20541;-81
2022/11/01 07:19:29;;;;;;;7.30;1.95;;;13.60;99.90;;;;;;4988633;28;20424;-80
2022/11/01 07:21:55;;;;;;;7.72;1.27;;;13.60;99.90;;;;;;4974285;28;20671;-88
2022/11/01 07:24:20;;;;;;;7.13;2.72;;;13.70;99.90;;;;;;4982778;28;20039;-79
2022/11/01 07:26:46;;;;;;;17.20;2.70;;;13.70;99.90;;;;;;4984974;28;20039;-85
2022/11/01 07:29:12;;;;;;;12.77;2.72;;;13.70;99.90;;;;;;4993041;28;20086;-76
2022/11/01 07:31:37;;;;;;;16.90;3.90;;;13.80;99.90;;;;;;4986935;28;20497;-85
2022/11/01 07:34:04;;;;;;;8.13;2.22;;;13.70;99.90;;;;;;4993947;28;20069;-87
2022/11/01 07:36:30;;;;;;;11.13;2.83;;;13.90;99.90;;;;;;4992001;28;20049;-82
2022/11/01 07:38:55;;;;;;;7.65;2.83;;;13.90;99.90;;;;;;4995769;28;20050;-83
2022/11/01 07:41:21;;;;;;;9.13;2.40;;;14.00;99.90;;;;;;4981892;28;20098;-77
2022/11/01 07:43:47;;;;;;;16.83;2.42;;;13.90;99.90;;;;;;4985776;28;20042;-81
2022/11/01 07:46:12;;;;;;;9.57;2.53;;;13.90;99.90;;;;;;4991703;28;20038;-80
2022/11/01 07:48:38;;;;;;;12.60;2.83;;;14.00;99.90;;;;;;4981012;28;20046;-79
2022/11/01 07:51:06;;;;;;;14.27;2.50;;;14.00;99.90;;;;;;4975648;28;20498;-80
2022/11/01 07:53:32;;;;;;;8.48;1.40;;;14.00;99.90;;;;;;4991372;28;20153;-82
2022/11/01 07:56:00;;;;;;;9.75;1.70;;;14.00;99.90;;;;;;4985011;28;20046;-85
2022/11/01 07:58:26;;;;;;;10.73;1.38;;;14.10;99.90;;;;;;4990970;28;20382;-83
2022/11/01 08:00:51;;;;;;;11.70;2.60;;;14.10;99.90;;;;;;4994350;28;20081;-81
2022/11/01 08:03:18;;;;;;;11.02;1.42;;;14.10;99.90;;;;;;4994175;28;20035;-83
2022/11/01 08:05:45;;;;;;;19.30;4.82;;;14.00;99.90;;;;;;4986979;28;20600;-78
2022/11/01 08:08:11;;;;;;;7.22;1.88;;;14.10;99.90;;;;;;4991798;28;20046;-87
2022/11/01 08:10:37;;;;;;;6.95;1.88;;;14.10;99.90;;;;;;4996092;28;20038;-80
2022/11/01 08:13:14;;;;;;;17.33;3.25;;;14.10;99.90;;;;;;4991752;28;20047;-85
2022/11/01 08:15:40;;;;;;;17.00;2.92;;;14.10;99.90;;;;;;4985893;28;20371;-80
2022/11/01 08:18:06;;;;;;;13.65;2.72;;;14.10;99.90;;;;;;4992000;28;20054;-84
2022/11/01 08:20:31;;;;;;;9.30;2.63;;;14.20;99.90;;;;;;5001021;28;20110;-79
2022/11/01 08:22:57;;;;;;;23.17;4.00;;;14.20;99.90;;;;;;4985541;28;20042;-79
2022/11/01 08:25:23;;;;;;;13.10;2.88;;;14.30;99.90;;;;;;4984395;28;20049;-80
2022/11/01 08:27:49;;;;;;;13.48;3.83;;;14.10;99.90;;;;;;4982863;28;20097;-75
2022/11/01 08:30:17;;;;;;;16.45;3.55;;;14.10;99.90;;;;;;4988489;28;20050;-81
2022/11/01 08:32:43;;;;;;;14.82;4.28;;;14.10;99.90;;;;;;4998732;28;20066;-85
2022/11/01 08:35:10;;;;;;;13.40;3.30;;;14.00;99.90;;;;;;4995028;28;20047;-83
2022/11/01 08:37:37;;;;;;;9.38;2.58;;;14.00;99.90;;;;;;4993891;28;20069;-77
2022/11/01 08:40:03;;;;;;;24.48;4.55;;;14.00;99.90;;;;;;4998264;28;20366;-82
2022/11/01 08:42:29;;;;;;;20.15;3.75;;;14.00;99.90;;;;;;4989476;28;20049;-81
2022/11/01 08:44:55;;;;;;;21.75;3.13;;;14.00;99.90;;;;;;4989630;28;20252;-81
2022/11/01 08:47:21;;;;;;;15.05;3.47;;;14.00;99.90;;;;;;4988728;28;20046;-79
2022/11/01 08:49:46;;;;;;;13.98;3.00;;;14.00;99.90;;;;;;4974421;28;20050;-83
2022/11/01 08:52:12;;;;;;;26.80;5.43;;;14.10;99.90;;;;;;4983103;28;20129;-81
2022/11/01 08:54:37;;;;;;;17.38;3.88;;;14.20;99.90;;;;;;4990325;28;20057;-83
2022/11/01 08:57:03;;;;;;;16.10;2.53;;;14.00;99.90;;;;;;4986129;28;20058;-84
2022/11/01 08:59:29;;;;;;;19.73;3.22;;;14.00;99.90;;;;;;4998642;28;20085;-85
2022/11/01 09:01:55;;;;;;;12.45;2.70;;;14.10;99.90;;;;;;5000116;28;20416;-86
2022/11/01 09:04:20;;;;;;;16.98;2.58;;;14.00;99.90;;;;;;4991279;28;20050;-84
2022/11/01 09:06:46;;;;;;;14.07;3.53;;;14.10;99.90;;;;;;4994507;28;20049;-79
2022/11/01 09:09:12;;;;;;;19.45;4.00;;;14.20;99.90;;;;;;4990494;28;20452;-85
2022/11/01 09:11:37;;;;;;;14.98;4.43;;;14.30;99.90;;;;;;4995644;28;20030;-82
2022/11/01 09:14:03;;;;;;;16.88;4.00;;;14.40;99.90;;;;;;4986877;28;20390;-76
2022/11/01 09:16:29;;;;;;;20.33;3.83;;;14.30;99.90;;;;;;4982653;28;20206;-87
2022/11/01 09:19:00;;;;;;;21.05;5.05;;;14.50;99.90;;;;;;4977545;28;20061;-80
2022/11/01 09:21:29;;;;;;;16.38;3.28;;;14.50;99.90;;;;;;4986387;28;20054;-82
2022/11/01 09:23:55;;;;;;;16.48;4.43;;;14.60;99.90;;;;;;4982445;28;20058;-84
2022/11/01 09:26:21;;;;;;;16.08;3.60;;;14.50;99.90;;;;;;4983865;28;20070;-79
2022/11/01 09:28:46;;;;;;;25.17;5.43;;;14.50;99.90;;;;;;4987555;28;20045;-89
2022/11/01 09:31:12;;;;;;;18.65;4.22;;;14.40;99.90;;;;;;4982039;28;20050;-88
2022/11/01 09:33:38;;;;;;;18.85;4.55;;;14.40;99.90;;;;;;4982337;28;20103;-85
2022/11/01 09:36:04;;;;;;;17.98;3.00;;;14.40;99.90;;;;;;4990765;28;20043;-90
2022/11/01 09:38:30;;;;;;;17.90;3.72;;;14.50;99.90;;;;;;4971477;28;20116;-81
2022/11/01 09:41:12;;;;;;;17.58;4.03;;;14.50;99.90;;;;;;4992750;28;20050;-90
2022/11/01 09:43:41;;;;;;;13.10;2.92;;;14.60;99.90;;;;;;4981789;28;20101;-88
2022/11/01 09:46:08;;;;;;;18.00;4.03;;;14.60;99.90;;;;;;4968016;28;20043;-88
2022/11/01 09:48:35;;;;;;;16.63;3.17;;;14.60;99.90;;;;;;4985011;28;20035;-88
2022/11/01 09:51:06;;;;;;;22.90;5.22;;;14.70;99.90;;;;;;4997332;28;20046;-86
2022/11/01 09:53:32;;;;;;;18.02;3.13;;;14.70;99.90;;;;;;4982094;28;20089;-83
2022/11/01 09:56:09;;;;;;;15.88;3.90;;;14.80;99.90;;;;;;4972964;28;20038;-83
2022/11/01 09:58:46;;;;;;;18.00;4.82;;;14.90;99.90;;;;;;4989074;28;20065;-76
2022/11/01 10:01:39;;;;;;;14.95;2.28;;;14.90;99.90;;;;;;4983323;28;20064;-73
2022/11/01 10:04:23;;;;;;;21.98;4.90;;;15.00;99.90;;;;;;4973558;28;20133;-72
2022/11/01 10:06:58;;;;;;;22.80;4.80;;;14.80;99.90;;;;;;4987800;28;20080;-73
2022/11/01 10:09:40;;;;;;;28.25;3.05;;;14.80;99.90;;;;;;4974136;28;20137;-73
2022/11/01 10:12:14;;;;;;;21.75;4.50;;;14.90;99.90;;;;;;4979800;28;20075;-75
2022/11/01 10:15:08;;;;;;;14.45;4.13;;;14.80;99.90;;;;;;4970808;28;20050;-75
2022/11/01 10:17:43;;;;;;;19.73;3.85;;;14.80;99.90;;;;;;4986318;28;20618;-74
2022/11/01 10:20:12;;;;;;;17.60;2.88;;;14.70;99.90;;;;;;4973547;28;20039;-81
2022/11/01 10:22:40;;;;;;;41.20;5.28;;;14.80;99.90;;;;;;4973882;28;20049;-79
2022/11/01 10:25:26;;;;;;;16.55;3.78;;;14.80;99.90;;;;;;4994474;28;20046;-78
2022/11/01 10:27:58;;;;;;;25.30;4.93;;;14.80;99.90;;;;;;4985745;28;20050;-78
2022/11/01 10:30:24;;;;;;;14.43;3.42;;;14.80;99.90;;;;;;4986274;28;20204;-79
2022/11/01 10:33:11;;;;;;;20.55;3.05;;;14.80;99.90;;;;;;4978136;28;20490;-77
2022/11/01 10:35:41;;;;;;;20.23;5.47;;;14.60;99.90;;;;;;4972718;28;20460;-78
2022/11/01 10:38:36;;;;;;;10.90;2.33;;;14.80;99.90;;;;;;4986064;28;20046;-77
2022/11/01 10:41:14;;;;;;;23.42;4.20;;;14.80;99.90;;;;;;4977382;28;20491;-79
2022/11/01 10:43:47;;;;;;;21.88;4.68;;;14.80;99.90;;;;;;4986301;28;20061;-79
2022/11/01 10:46:17;;;;;;;37.70;4.85;;;14.70;99.90;;;;;;4987467;28;20050;-79
2022/11/01 10:48:53;;;;;;;12.90;3.00;;;14.70;99.90;;;;;;4989254;28;20077;-79
2022/11/01 10:51:21;;;;;;;15.55;3.22;;;14.60;99.90;;;;;;4987039;28;20299;-80
2022/11/01 10:53:51;;;;;;;15.02;2.53;;;14.50;99.90;;;;;;4986545;28;20089;-78
2022/11/01 10:56:28;;;;;;;15.02;3.83;;;14.50;99.90;;;;;;4989703;28;20102;-78
2022/11/01 10:59:04;;;;;;;16.90;4.55;;;14.50;99.90;;;;;;4968502;28;20085;-79
2022/11/01 11:01:41;;;;;;;16.60;3.08;;;14.50;99.90;;;;;;4975339;28;20039;-79
2022/11/01 11:04:11;;;;;;;23.15;3.25;;;14.50;99.90;;;;;;4969100;28;20498;-79
2022/11/01 11:06:38;;;;;;;13.23;2.33;;;14.50;99.90;;;;;;4968599;28;20047;-77
2022/11/01 11:09:05;;;;;;;13.10;2.78;;;14.70;99.90;;;;;;4981993;28;20046;-81
2022/11/01 11:11:40;;;;;;;15.57;3.70;;;14.60;99.90;;;;;;4986254;28;20564;-79
2022/11/01 11:14:08;;;;;;;19.70;4.05;;;14.70;99.90;;;;;;4982999;28;20147;-77
2022/11/01 11:16:45;;;;;;;13.93;3.80;;;14.70;99.90;;;;;;4988562;28;20111;-79
2022/11/01 11:19:21;;;;;;;14.80;3.30;;;14.70;99.90;;;;;;4969238;28;20081;-79
2022/11/01 11:21:50;;;;;;;15.32;3.47;;;14.70;99.90;;;;;;4984309;28;20107;-82
2022/11/01 11:24:24;;;;;;;19.90;3.00;;;14.90;99.90;;;;;;4971648;28;20046;-81
2022/11/01 11:26:53;;;;;;;17.30;4.47;;;14.80;99.90;;;;;;4973123;28;20081;-79
2022/11/01 11:29:36;;;;;;;17.70;3.35;;;15.00;99.90;;;;;;4985457;28;20060;-80
2022/11/01 11:32:05;;;;;;;22.92;4.60;;;15.00;99.90;;;;;;4988268;28;20452;-78
2022/11/01 11:34:33;;;;;;;11.20;3.63;;;15.10;99.90;;;;;;4984576;28;20078;-78
2022/11/01 11:37:05;;;;;;;21.75;5.10;;;15.20;99.90;;;;;;4987092;28;20053;-78
2022/11/01 11:39:36;;;;;;;15.25;2.53;;;15.30;99.90;;;;;;4985191;28;20062;-79
2022/11/01 11:42:17;;;;;;;20.08;4.25;;;15.30;99.90;;;;;;4988167;28;20417;-77
2022/11/01 11:44:51;;;;;;;11.80;2.53;;;15.40;99.90;;;;;;4977440;28;20107;-78
2022/11/01 11:47:20;;;;;;;15.90;2.05;;;15.40;99.90;;;;;;4983706;28;20038;-78
2022/11/01 11:49:47;;;;;;;13.43;2.78;;;15.50;99.90;;;;;;4983481;28;20050;-76
2022/11/01 11:52:18;;;;;;;10.80;2.88;;;15.50;99.90;;;;;;4986146;28;20049;-78
2022/11/01 11:54:44;;;;;;;9.65;2.60;;;15.60;99.90;;;;;;4984596;28;20057;-77
2022/11/01 11:57:23;;;;;;;16.35;4.18;;;15.60;99.90;;;;;;4985482;28;20049;-78
2022/11/01 11:59:53;;;;;;;16.23;2.10;;;15.60;99.90;;;;;;4985574;28;20084;-78
2022/11/01 12:02:39;;;;;;;10.75;3.33;;;15.60;99.90;;;;;;4987014;28;20409;-75
2022/11/01 12:05:21;;;;;;;18.23;3.88;;;15.60;99.90;;;;;;4984450;28;20047;-77
2022/11/01 12:07:53;;;;;;;6.63;2.72;;;15.70;99.90;;;;;;4986020;28;20413;-76
2022/11/01 12:10:37;;;;;;;13.18;2.50;;;15.60;99.90;;;;;;4981898;28;20104;-78
2022/11/01 12:13:40;;;;;;;15.98;2.58;;;15.50;99.90;;;;;;4984845;28;20042;-77
2022/11/01 12:16:06;;;;;;;15.48;3.00;;;15.60;99.90;;;;;;4906521;29;20055;-75
2022/11/01 12:18:32;;;;;;;13.15;2.55;;;15.70;99.90;;;;;;4971833;28;20050;-74
2022/11/01 12:20:58;;;;;;;17.23;2.88;;;15.70;99.90;;;;;;4978882;28;20039;-77
2022/11/01 12:23:36;;;;;;;13.55;2.83;;;15.70;99.90;;;;;;4975856;28;20404;-77
2022/11/01 12:26:07;;;;;;;12.35;2.47;;;15.90;99.90;;;;;;4967898;28;20137;-77
2022/11/01 12:28:40;;;;;;;12.27;2.33;;;15.80;99.90;;;;;;4986828;28;20046;-80
2022/11/01 12:31:18;;;;;;;11.07;2.35;;;15.90;99.90;;;;;;4982476;28;20042;-77
2022/11/01 12:33:57;;;;;;;10.80;3.75;;;15.80;99.90;;;;;;4985074;28;20058;-77
2022/11/01 12:36:38;;;;;;;14.82;3.15;;;15.70;99.90;;;;;;4985378;28;20434;-78
2022/11/01 12:39:30;;;;;;;13.90;2.85;;;15.80;99.90;;;;;;4988994;28;20045;-78
2022/11/01 12:41:59;;;;;;;12.48;2.88;;;15.90;99.90;;;;;;5004116;28;20470;-78
2022/11/01 12:44:37;;;;;;;11.35;2.75;;;16.10;99.90;;;;;;4969749;28;20452;-77
2022/11/01 12:47:12;;;;;;;8.60;2.65;;;16.00;99.90;;;;;;4994941;28;20393;-77
2022/11/01 12:49:48;;;;;;;11.73;2.50;;;15.90;99.90;;;;;;4968106;28;20043;-76
2022/11/01 12:52:28;;;;;;;14.63;2.78;;;16.00;99.90;;;;;;4985659;28;20129;-77
2022/11/01 12:55:08;;;;;;;16.85;2.72;;;16.10;99.90;;;;;;4987029;28;20057;-78
2022/11/01 12:57:34;;;;;;;12.60;3.80;;;16.20;99.90;;;;;;4987125;28;20126;-78
2022/11/01 13:00:00;;;;;;;14.40;3.40;;;16.10;99.90;;;;;;4977146;28;20441;-77
2022/11/01 13:02:45;;;;;;;10.45;2.25;;;16.00;99.90;;;;;;4967304;28;20054;-77